createdAt,value
2022-12-22T00:00:57.367Z,2.90
2022-12-22T00:06:21.683Z,2.90
2022-12-22T00:11:42.713Z,2.90
2022-12-22T00:17:04.977Z,2.90
2022-12-22T00:22:39.463Z,3.00
2022-12-22T00:28:01.069Z,2.90
2022-12-22T00:33:24.207Z,2.70
2022-12-22T00:38:47.307Z,2.80
2022-12-22T00:44:08.672Z,2.70
2022-12-22T00:49:29.700Z,2.80
2022-12-22T00:54:51.429Z,2.90
2022-12-22T01:00:15.498Z,2.90
2022-12-22T01:05:36.594Z,2.90
2022-12-22T01:10:57.877Z,3.00
2022-12-22T01:16:19.140Z,2.90
2022-12-22T01:21:40.418Z,2.90
2022-12-22T01:27:01.549Z,3.00
2022-12-22T01:32:23.101Z,2.90
2022-12-22T01:37:44.526Z,2.90
2022-12-22T01:43:05.556Z,3.00
2022-12-22T01:48:37.975Z,3.00
2022-12-22T01:53:59.284Z,3.20
2022-12-22T01:59:23.330Z,3.20
2022-12-22T02:05:00.210Z,3.30
2022-12-22T02:10:55.879Z,3.40
2022-12-22T02:16:29.145Z,3.40
2022-12-22T02:22:02.117Z,3.40
2022-12-22T02:27:25.135Z,3.40
2022-12-22T02:32:46.257Z,3.40
2022-12-22T02:38:13.485Z,3.40
2022-12-22T02:43:47.137Z,3.30
2022-12-22T02:49:40.843Z,3.10
2022-12-22T02:55:03.415Z,3.20
2022-12-22T03:00:26.072Z,3.10
2022-12-22T03:05:47.503Z,3.20
2022-12-22T03:11:08.447Z,3.20
2022-12-22T03:16:29.464Z,3.10
2022-12-22T03:21:50.391Z,3.10
2022-12-22T03:26:53.139Z,3.10
2022-12-22T03:31:55.689Z,3.10
2022-12-22T03:37:00.149Z,3.00
2022-12-22T03:42:21.011Z,3.00
2022-12-22T03:47:23.536Z,3.10
2022-12-22T03:52:26.106Z,3.10
2022-12-22T03:57:28.867Z,3.00
2022-12-22T04:02:31.375Z,2.90
2022-12-22T04:07:34.239Z,3.00
2022-12-22T04:12:55.130Z,3.10
2022-12-22T04:17:58.808Z,3.10
2022-12-22T04:23:01.697Z,3.10
2022-12-22T04:28:04.393Z,3.10
2022-12-22T04:33:06.897Z,3.10
2022-12-22T04:38:09.431Z,3.20
2022-12-22T04:43:11.930Z,3.30
2022-12-22T04:48:14.411Z,3.30
2022-12-22T04:53:17.040Z,3.30
2022-12-22T04:58:19.542Z,3.30
2022-12-22T05:03:22.826Z,3.30
2022-12-22T05:08:25.371Z,3.30
2022-12-22T05:13:27.869Z,3.20
2022-12-22T05:18:30.355Z,3.40
2022-12-22T05:23:32.978Z,3.40
2022-12-22T05:28:35.815Z,3.40
2022-12-22T05:33:38.402Z,3.40
2022-12-22T05:38:41.260Z,3.20
2022-12-22T05:43:43.893Z,3.10
2022-12-22T05:48:46.501Z,3.20
2022-12-22T05:53:48.990Z,3.20
2022-12-22T05:58:51.461Z,3.20
2022-12-22T06:03:59.694Z,3.30
2022-12-22T06:09:02.986Z,3.40
2022-12-22T06:14:05.655Z,3.40
2022-12-22T06:19:08.094Z,3.40
2022-12-22T06:24:10.763Z,3.40
2022-12-22T06:29:13.282Z,3.40
2022-12-22T06:34:18.000Z,3.40
2022-12-22T06:39:20.677Z,3.30
2022-12-22T06:44:23.267Z,3.40
2022-12-22T06:49:25.822Z,3.40
2022-12-22T06:54:28.318Z,3.30
2022-12-22T06:59:30.849Z,2.90
2022-12-22T07:04:33.357Z,2.80
2022-12-22T07:09:35.945Z,2.80
2022-12-22T07:14:38.567Z,2.70
2022-12-22T07:19:41.215Z,2.90
2022-12-22T07:24:43.723Z,3.00
2022-12-22T07:29:46.268Z,3.20
2022-12-22T07:34:48.696Z,3.30
2022-12-22T07:39:51.242Z,3.50
2022-12-22T07:44:53.791Z,3.50
2022-12-22T07:50:14.828Z,3.60
2022-12-22T07:55:17.402Z,3.70
2022-12-22T08:00:21.023Z,3.70
2022-12-22T08:05:25.349Z,3.70
2022-12-22T08:10:27.956Z,3.60
2022-12-22T08:15:30.494Z,3.60
2022-12-22T08:20:33.233Z,3.50
2022-12-22T08:25:36.051Z,3.50
2022-12-22T08:30:38.783Z,3.60
2022-12-22T08:35:43.131Z,4.00
2022-12-22T08:40:45.871Z,4.30
2022-12-22T08:45:48.404Z,4.50
2022-12-22T08:50:50.935Z,4.60
2022-12-22T08:55:55.031Z,4.80
2022-12-22T09:00:57.889Z,5.00
2022-12-22T09:06:01.661Z,5.00
2022-12-22T09:11:05.252Z,5.00
2022-12-22T09:16:09.526Z,5.10
2022-12-22T09:21:12.476Z,5.20
2022-12-22T09:26:18.104Z,5.40
2022-12-22T09:31:22.937Z,5.40
2022-12-22T09:36:28.986Z,5.20
2022-12-22T09:41:53.233Z,5.30
2022-12-22T09:47:01.371Z,5.30
2022-12-22T09:52:05.123Z,5.40
2022-12-22T09:57:13.057Z,5.60
2022-12-22T10:02:26.590Z,5.60
2022-12-22T10:07:34.751Z,5.60
2022-12-22T10:12:37.117Z,5.60
2022-12-22T10:17:39.767Z,5.60
2022-12-22T10:22:55.450Z,5.50
2022-12-22T10:28:00.688Z,5.50
2022-12-22T10:33:09.283Z,5.50
2022-12-22T10:38:35.954Z,5.70
2022-12-22T10:43:45.867Z,6.00
2022-12-22T10:48:48.798Z,6.10
2022-12-22T10:53:55.459Z,6.10
2022-12-22T10:59:19.993Z,6.10
2022-12-22T11:04:28.090Z,6.00
2022-12-22T11:09:34.338Z,6.00
2022-12-22T11:14:43.587Z,5.90
2022-12-22T11:20:10.844Z,5.80
2022-12-22T11:25:23.128Z,5.80
2022-12-22T11:30:45.539Z,6.00
2022-12-22T11:35:51.135Z,6.10
2022-12-22T11:41:23.514Z,6.20
2022-12-22T11:46:44.600Z,6.20
2022-12-22T11:51:47.134Z,6.20
2022-12-22T11:57:16.546Z,6.10
2022-12-22T12:02:42.744Z,6.00
2022-12-22T12:08:06.882Z,6.00
2022-12-22T12:13:37.765Z,6.00
2022-12-22T12:19:06.521Z,5.90
2022-12-22T12:24:11.992Z,5.90
2022-12-22T12:29:23.215Z,5.90
2022-12-22T12:34:30.058Z,5.80
2022-12-22T12:39:50.409Z,5.80
2022-12-22T12:44:53.806Z,5.80
2022-12-22T12:50:48.980Z,5.90
2022-12-22T12:55:52.941Z,5.90
2022-12-22T13:01:03.023Z,5.90
2022-12-22T13:06:07.954Z,5.80
2022-12-22T13:11:10.589Z,5.80
2022-12-22T13:16:15.919Z,5.80
2022-12-22T13:21:52.242Z,5.70
2022-12-22T13:26:54.569Z,5.60
2022-12-22T13:32:00.644Z,5.60
2022-12-22T13:37:15.578Z,5.50
2022-12-22T13:42:18.205Z,5.50
2022-12-22T13:47:21.046Z,5.30
2022-12-22T13:52:23.955Z,5.40
2022-12-22T13:57:26.540Z,5.40
2022-12-22T14:02:32.804Z,5.30
2022-12-22T14:07:35.912Z,5.20
2022-12-22T14:12:46.116Z,5.00
2022-12-22T14:17:52.830Z,5.00
2022-12-22T14:23:04.398Z,5.00
2022-12-22T14:28:19.307Z,4.90
2022-12-22T14:33:27.722Z,5.00
2022-12-22T14:38:39.693Z,5.00
2022-12-22T14:43:42.454Z,5.20
2022-12-22T14:48:47.865Z,5.30
2022-12-22T14:53:56.791Z,5.30
2022-12-22T14:59:26.716Z,5.30
2022-12-22T15:04:30.423Z,5.30
2022-12-22T15:10:12.962Z,5.30
2022-12-22T15:14:55.539Z,5.30
2022-12-22T15:19:59.312Z,5.30
2022-12-22T15:25:01.949Z,5.40
2022-12-22T15:30:04.784Z,5.50
2022-12-22T15:35:27.648Z,5.60
2022-12-22T15:40:30.153Z,5.60
2022-12-22T15:45:33.258Z,5.60
2022-12-22T15:50:40.191Z,5.60
2022-12-22T15:55:49.075Z,4.80
2022-12-22T16:00:51.495Z,5.50
2022-12-22T16:05:55.285Z,5.40
2022-12-22T16:10:58.819Z,5.50
2022-12-22T16:16:02.111Z,5.50
2022-12-22T16:21:14.491Z,5.60
2022-12-22T16:26:20.711Z,5.60
2022-12-22T16:31:24.997Z,5.70
2022-12-22T16:36:27.608Z,5.70
2022-12-22T16:41:30.150Z,5.70
2022-12-22T16:46:35.940Z,5.70
2022-12-22T16:51:50.382Z,5.70
2022-12-22T16:56:53.334Z,5.70
2022-12-22T17:01:57.616Z,5.70
2022-12-22T17:07:02.096Z,5.60
2022-12-22T17:12:05.155Z,5.80
2022-12-22T17:17:17.888Z,5.80
2022-12-22T17:22:22.210Z,5.90
2022-12-22T17:27:30.887Z,5.80
2022-12-22T17:32:33.402Z,5.70
2022-12-22T17:37:36.131Z,5.50
2022-12-22T17:42:39.049Z,5.50
2022-12-22T17:47:43.101Z,5.60
2022-12-22T17:52:46.756Z,5.60
2022-12-22T17:57:49.696Z,5.70
2022-12-22T18:02:52.962Z,5.70
2022-12-22T18:08:00.730Z,5.70
2022-12-22T18:13:10.550Z,5.70
2022-12-22T18:18:18.086Z,5.90
2022-12-22T18:23:27.116Z,6.00
2022-12-22T18:28:29.595Z,6.00
2022-12-22T18:33:32.148Z,6.00
2022-12-22T18:38:36.292Z,5.90
2022-12-22T18:43:39.297Z,5.80
2022-12-22T18:48:41.903Z,5.90
2022-12-22T18:53:44.665Z,6.00
2022-12-22T18:58:47.522Z,5.90
2022-12-22T19:03:51.969Z,5.70
2022-12-22T19:08:54.769Z,5.60
2022-12-22T19:13:57.412Z,5.50
2022-12-22T19:19:01.644Z,5.50
2022-12-22T19:24:04.702Z,5.40
2022-12-22T19:29:10.474Z,5.40
2022-12-22T19:34:19.390Z,5.50
2022-12-22T19:39:22.177Z,8.40
2022-12-22T19:44:27.839Z,5.40
2022-12-22T19:49:30.986Z,5.30
2022-12-22T19:54:33.644Z,5.40
2022-12-22T19:59:40.528Z,5.50
2022-12-22T20:04:43.239Z,5.60
2022-12-22T20:09:46.067Z,5.60
2022-12-22T20:14:48.653Z,5.70
2022-12-22T20:19:53.117Z,5.70
2022-12-22T20:24:55.895Z,5.70
2022-12-22T20:29:59.463Z,5.80
2022-12-22T20:35:04.066Z,5.80
2022-12-22T20:40:24.711Z,5.80
2022-12-22T20:45:30.932Z,5.80
2022-12-22T20:50:34.452Z,5.90
2022-12-22T20:55:37.261Z,5.90
2022-12-22T21:00:47.467Z,5.90
2022-12-22T21:05:51.370Z,5.90
2022-12-22T21:10:56.632Z,5.80
2022-12-22T21:15:59.366Z,5.80
2022-12-22T21:21:01.870Z,5.80
2022-12-22T21:26:08.162Z,5.80
2022-12-22T21:31:10.746Z,5.90
2022-12-22T21:36:24.604Z,6.00
2022-12-22T21:41:45.888Z,6.00
2022-12-22T21:46:48.422Z,6.00
2022-12-22T21:51:52.883Z,6.00
2022-12-22T21:56:55.752Z,6.10
2022-12-22T22:01:58.559Z,6.20
2022-12-22T22:07:01.060Z,6.20
2022-12-22T22:12:29.991Z,6.20
2022-12-22T22:17:32.742Z,6.30
2022-12-22T22:22:35.271Z,6.20
2022-12-22T22:27:41.772Z,6.20
2022-12-22T22:32:49.418Z,6.20
2022-12-22T22:37:52.021Z,6.30
2022-12-22T22:42:56.830Z,6.40
2022-12-22T22:47:59.436Z,6.30
2022-12-22T22:53:01.888Z,6.30
2022-12-22T22:58:04.403Z,6.30
2022-12-22T23:03:07.285Z,6.40
2022-12-22T23:08:09.927Z,6.40
2022-12-22T23:13:12.561Z,6.40
2022-12-22T23:18:15.151Z,6.40
2022-12-22T23:23:18.089Z,6.40
2022-12-22T23:28:21.342Z,6.40
2022-12-22T23:33:24.269Z,6.50
2022-12-22T23:38:26.951Z,6.50
2022-12-22T23:43:29.816Z,6.60
2022-12-22T23:48:32.264Z,6.60
2022-12-22T23:53:36.189Z,6.60
2022-12-22T23:58:38.953Z,6.60
